»·PEaware :: UAL1399 KCPR-KDEN

UAL1399 :: KCPR-KDEN

FLIGHT INFORMATION

Flight Status: Arrived
Operator:
United Airlines
More flights by this operator :: More flights under this callsign
Pilot: David C. (16084)
Aircraft: AIRBUS A320
(A320)
More flights by this aircraft type
Origin: KCPR Natrona Co Intl
United States
Destination: KDEN Denver Intl
United States
More flights between these airports :: More routes between these airports
Route: +CPR3 DDY WOOKY MOLTN3
File this flight plan on PilotEdge
Remarks:
Altitude:
(Current/Filed)
29,000ft
Speed:
(Current/Filed)
480kts
Departed: 23-Jun-18 11:18 AM
Arrived: 23-Jun-18 12:00 PM
Distance/Time
Traveled:
200nm/0:42
Distance/Time
To Go:
Arrived

Flight Plot

Page will automatically refresh every two minutes.

Flight plan parsing failed; only flown route is shown


Map Options




Map Legend


Flown Route
Filed Route
Departure Airport
Arrival Airport
Navaid (VOR, NDB)
Fix

Horizontal Profiles

Position Reports

Time Latitude Longitude Heading Altitude Ground
Speed
23-Jun-18 10:50 42.897522 -106.465268 152 5356ft 0kts
23-Jun-18 10:51 42.897522 -106.465268 152 5356ft 0kts
23-Jun-18 10:52 42.897522 -106.465268 152 5356ft 0kts
23-Jun-18 10:53 42.897522 -106.465268 152 5356ft 0kts
23-Jun-18 10:54 42.897522 -106.465268 152 5356ft 0kts
23-Jun-18 10:55 42.897522 -106.465268 152 5356ft 0kts
23-Jun-18 10:56 42.897522 -106.465268 152 5356ft 0kts
23-Jun-18 10:57 42.897522 -106.465268 152 5356ft 0kts
23-Jun-18 10:58 42.897522 -106.465268 152 5356ft 0kts
23-Jun-18 10:59 42.897522 -106.465268 152 5356ft 0kts
23-Jun-18 11:00 42.897522 -106.465268 152 5356ft 0kts
23-Jun-18 11:01 42.897522 -106.465268 152 5356ft 0kts
23-Jun-18 11:02 42.897522 -106.465268 152 5356ft 0kts
23-Jun-18 11:03 42.897522 -106.465268 152 5356ft 0kts
23-Jun-18 11:04 42.897674 -106.465624 94 5356ft 2kts
23-Jun-18 11:05 42.897587 -106.466046 56 5356ft 0kts
23-Jun-18 11:06 42.897588 -106.466046 56 5356ft 0kts
23-Jun-18 11:07 42.897588 -106.466046 56 5356ft 0kts
23-Jun-18 11:08 42.897588 -106.466046 56 5356ft 0kts
23-Jun-18 11:09 42.897588 -106.466046 56 5356ft 0kts
23-Jun-18 11:10 42.897588 -106.466046 56 5356ft 0kts
23-Jun-18 11:11 42.897588 -106.466046 56 5356ft 0kts
23-Jun-18 11:12 42.897588 -106.466046 56 5356ft 0kts
23-Jun-18 11:13 42.898385 -106.465588 14 5356ft 14kts
23-Jun-18 11:14 42.902140 -106.460896 44 5356ft 28kts
23-Jun-18 11:15 42.907186 -106.454325 44 5356ft 17kts
23-Jun-18 11:16 42.907825 -106.453491 43 5356ft 0kts
23-Jun-18 11:17 42.907858 -106.453449 43 5356ft 3kts
23-Jun-18 11:18 42.908735 -106.459503 268 5356ft 95kts
23-Jun-18 11:19 42.909359 -106.519931 270 6833ft 192kts
23-Jun-18 11:20 42.912378 -106.599945 270 9266ft 220kts
23-Jun-18 11:21 42.913925 -106.683464 270 12011ft 228kts
23-Jun-18 11:22 42.874971 -106.740077 175 14127ft 281kts
23-Jun-18 11:23 42.804346 -106.700402 159 15616ft 336kts
23-Jun-18 11:24 42.717294 -106.648084 160 18156ft 351kts
23-Jun-18 11:25 42.626339 -106.594193 161 20497ft 364kts
23-Jun-18 11:26 42.532337 -106.538387 161 22601ft 377kts
23-Jun-18 11:27 42.435634 -106.481706 162 24506ft 389kts
23-Jun-18 11:28 42.334945 -106.422826 162 26274ft 400kts
23-Jun-18 11:29 42.231873 -106.362750 162 27886ft 410kts
23-Jun-18 11:30 42.126984 -106.301839 163 29129ft 422kts
23-Jun-18 11:31 42.016847 -106.238234 162 29174ft 463kts
23-Jun-18 11:32 41.895014 -106.167995 162 29166ft 495kts
23-Jun-18 11:33 41.767778 -106.094875 162 29170ft 501kts
23-Jun-18 11:34 41.640164 -106.021914 162 29171ft 501kts
23-Jun-18 11:35 41.512295 -105.949162 162 29175ft 501kts
23-Jun-18 11:36 41.384148 -105.876567 162 29175ft 501kts
23-Jun-18 11:37 41.257302 -105.805013 162 29176ft 501kts
23-Jun-18 11:38 41.129051 -105.732974 162 29173ft 501kts
23-Jun-18 11:39 41.000840 -105.661272 161 28991ft 503kts
23-Jun-18 11:40 40.875401 -105.591398 161 27919ft 502kts
23-Jun-18 11:41 40.747724 -105.520557 160 24871ft 500kts
23-Jun-18 11:42 40.624252 -105.450176 152 23338ft 465kts
23-Jun-18 11:43 40.543052 -105.328756 127 22572ft 425kts
23-Jun-18 11:44 40.470809 -105.220152 151 21287ft 377kts
23-Jun-18 11:45 40.383298 -105.149533 151 19638ft 365kts
23-Jun-18 11:46 40.298059 -105.081215 151 18008ft 354kts
23-Jun-18 11:47 40.215571 -105.015285 151 16446ft 343kts
23-Jun-18 11:48 40.136184 -104.951629 151 15180ft 328kts
23-Jun-18 11:49 40.059769 -104.890571 150 14096ft 321kts
23-Jun-18 11:50 39.985549 -104.831418 150 13038ft 314kts
23-Jun-18 11:51 39.907526 -104.805662 182 11821ft 298kts
23-Jun-18 11:52 39.835220 -104.807609 182 11259ft 266kts
23-Jun-18 11:53 39.770973 -104.807702 181 10370ft 258kts
23-Jun-18 11:54 39.699950 -104.806700 166 8799ft 256kts
23-Jun-18 11:55 39.682329 -104.737505 41 7749ft 237kts
23-Jun-18 11:56 39.731927 -104.692247 49 7278ft 201kts
23-Jun-18 11:57 39.767721 -104.660316 353 7039ft 157kts
23-Jun-18 11:58 39.809411 -104.660698 358 5839ft 153kts
23-Jun-18 11:59 39.845126 -104.660447 1 5440ft 56kts
23-Jun-18 12:00 39.850743 -104.662411 355 5440ft 13kts
23-Jun-18 12:01 39.853375 -104.662353 1 5440ft 14kts
23-Jun-18 12:02 39.856735 -104.664677 269 5440ft 20kts
23-Jun-18 12:03 39.858042 -104.669628 1 5440ft 2kts
23-Jun-18 12:04 39.858114 -104.669624 2 5440ft 0kts

Navigation Log

Ident Type
Flight plan parsing failed, navigation log unavailable